createdAt,value
2022-11-17T00:02:21.451Z,21.60
2022-11-17T00:04:48.179Z,21.60
2022-11-17T00:07:14.949Z,21.60
2022-11-17T00:09:41.772Z,21.50
2022-11-17T00:12:32.467Z,21.60
2022-11-17T00:14:59.702Z,21.60
2022-11-17T00:17:26.387Z,21.50
2022-11-17T00:20:11.738Z,21.50
2022-11-17T00:22:38.386Z,21.50
2022-11-17T00:25:05.470Z,21.50
2022-11-17T00:27:32.148Z,21.50
2022-11-17T00:29:58.848Z,21.50
2022-11-17T00:32:44.126Z,21.50
2022-11-17T00:35:10.854Z,21.50
2022-11-17T00:38:00.170Z,21.50
2022-11-17T00:40:27.263Z,21.50
2022-11-17T00:42:53.926Z,21.50
2022-11-17T00:45:20.617Z,21.40
2022-11-17T00:47:48.074Z,21.40
2022-11-17T00:50:15.047Z,21.40
2022-11-17T00:52:41.784Z,21.40
2022-11-17T00:55:08.514Z,21.40
2022-11-17T00:57:35.207Z,21.40
2022-11-17T01:00:01.951Z,21.40
2022-11-17T01:02:28.604Z,21.40
2022-11-17T01:04:55.260Z,21.40
2022-11-17T01:07:22.853Z,21.40
2022-11-17T01:09:49.628Z,21.40
2022-11-17T01:12:16.298Z,21.40
2022-11-17T01:14:43.136Z,21.40
2022-11-17T01:17:09.800Z,21.40
2022-11-17T01:19:36.455Z,21.30
2022-11-17T01:22:03.912Z,21.40
2022-11-17T01:24:30.652Z,21.30
2022-11-17T01:26:57.433Z,21.30
2022-11-17T01:29:24.134Z,21.30
2022-11-17T01:31:52.242Z,21.30
2022-11-17T01:34:19.252Z,21.30
2022-11-17T01:37:04.554Z,21.30
2022-11-17T01:39:31.795Z,21.30
2022-11-17T01:42:02.628Z,21.30
2022-11-17T01:44:54.921Z,21.30
2022-11-17T01:47:24.332Z,21.30
2022-11-17T01:50:00.101Z,21.30
2022-11-17T01:52:29.214Z,21.20
2022-11-17T01:54:57.545Z,21.20
2022-11-17T01:57:33.279Z,21.20
2022-11-17T02:00:06.666Z,21.20
2022-11-17T02:02:34.761Z,21.20
2022-11-17T02:05:07.618Z,21.20
2022-11-17T02:07:39.575Z,21.20
2022-11-17T02:10:07.236Z,21.20
2022-11-17T02:12:36.684Z,21.20
2022-11-17T02:15:05.727Z,21.20
2022-11-17T02:17:37.986Z,21.20
2022-11-17T02:20:10.590Z,21.10
2022-11-17T02:22:58.695Z,21.10
2022-11-17T02:25:57.230Z,21.10
2022-11-17T02:28:31.372Z,21.10
2022-11-17T02:31:10.252Z,21.10
2022-11-17T02:34:17.390Z,21.10
2022-11-17T02:37:12.680Z,21.10
2022-11-17T02:39:51.202Z,21.10
2022-11-17T02:42:48.022Z,21.10
2022-11-17T02:45:21.253Z,21.10
2022-11-17T02:47:50.851Z,21.00
2022-11-17T02:50:25.295Z,21.00
2022-11-17T02:52:54.766Z,21.00
2022-11-17T02:55:21.637Z,21.00
2022-11-17T02:57:49.581Z,21.00
2022-11-17T03:00:20.501Z,21.00
2022-11-17T03:03:29.662Z,21.00
2022-11-17T03:06:08.600Z,20.90
2022-11-17T03:08:53.778Z,20.90
2022-11-17T03:11:29.625Z,20.90
2022-11-17T03:14:10.047Z,20.90
2022-11-17T03:17:10.243Z,20.90
2022-11-17T03:20:09.771Z,20.90
2022-11-17T03:22:59.713Z,20.90
2022-11-17T03:25:28.522Z,20.90
2022-11-17T03:27:59.737Z,20.90
2022-11-17T03:30:29.961Z,20.80
2022-11-17T03:33:06.833Z,20.80
2022-11-17T03:35:38.474Z,20.80
2022-11-17T03:38:10.532Z,20.80
2022-11-17T03:40:41.101Z,20.80
2022-11-17T03:43:12.090Z,20.80
2022-11-17T03:45:43.007Z,20.80
2022-11-17T03:48:40.809Z,20.80
2022-11-17T03:51:18.663Z,20.80
2022-11-17T03:53:47.001Z,20.90
2022-11-17T03:56:44.234Z,20.90
2022-11-17T03:59:33.148Z,20.90
2022-11-17T04:02:00.094Z,20.90
2022-11-17T04:04:48.542Z,21.00
2022-11-17T04:07:15.329Z,21.00
2022-11-17T04:09:42.145Z,21.00
2022-11-17T04:12:27.468Z,21.00
2022-11-17T04:15:12.972Z,21.00
2022-11-17T04:17:39.872Z,21.00
2022-11-17T04:20:07.324Z,21.00
2022-11-17T04:22:34.011Z,21.00
2022-11-17T04:25:00.684Z,21.00
2022-11-17T04:27:45.986Z,21.00
2022-11-17T04:30:12.898Z,21.00
2022-11-17T04:32:39.571Z,21.00
2022-11-17T04:35:07.472Z,21.10
2022-11-17T04:37:34.433Z,21.00
2022-11-17T04:40:01.443Z,21.00
2022-11-17T04:42:29.069Z,21.10
2022-11-17T04:44:55.744Z,21.10
2022-11-17T04:47:22.414Z,21.10
2022-11-17T04:49:53.917Z,21.10
2022-11-17T04:52:24.221Z,21.10
2022-11-17T04:54:53.603Z,21.10
2022-11-17T04:57:20.254Z,21.10
2022-11-17T04:59:46.910Z,21.10
2022-11-17T05:02:13.615Z,21.10
2022-11-17T05:04:58.622Z,21.10
2022-11-17T05:07:25.408Z,21.10
2022-11-17T05:09:52.267Z,21.20
2022-11-17T05:12:37.677Z,21.20
2022-11-17T05:15:04.969Z,21.20
2022-11-17T05:17:31.656Z,21.20
2022-11-17T05:19:58.366Z,21.20
2022-11-17T05:22:43.768Z,21.20
2022-11-17T05:25:10.934Z,21.20
2022-11-17T05:27:38.011Z,21.20
2022-11-17T05:30:06.772Z,21.20
2022-11-17T05:32:33.537Z,21.20
2022-11-17T05:35:00.280Z,21.20
2022-11-17T05:37:27.040Z,21.20
2022-11-17T05:39:53.918Z,21.30
2022-11-17T05:42:20.708Z,21.30
2022-11-17T05:44:48.577Z,21.30
2022-11-17T05:47:15.630Z,21.30
2022-11-17T05:49:42.300Z,21.30
2022-11-17T05:52:09.009Z,21.30
2022-11-17T05:54:35.672Z,21.30
2022-11-17T05:57:06.981Z,21.30
2022-11-17T05:59:38.875Z,21.30
2022-11-17T06:02:12.557Z,21.30
2022-11-17T06:04:40.101Z,21.30
2022-11-17T06:07:07.563Z,21.40
2022-11-17T06:09:36.684Z,21.30
2022-11-17T06:12:06.218Z,21.40
2022-11-17T06:14:34.365Z,21.40
2022-11-17T06:17:06.575Z,21.40
2022-11-17T06:19:39.835Z,21.40
2022-11-17T06:22:14.546Z,21.40
2022-11-17T06:24:44.145Z,21.40
2022-11-17T06:27:15.999Z,21.40
2022-11-17T06:29:44.853Z,21.40
2022-11-17T06:32:16.927Z,21.50
2022-11-17T06:34:48.025Z,21.50
2022-11-17T06:37:17.251Z,21.60
2022-11-17T06:39:43.906Z,21.60
2022-11-17T06:42:10.553Z,21.60
2022-11-17T06:44:37.229Z,21.70
2022-11-17T06:47:03.981Z,21.70
2022-11-17T06:49:30.671Z,21.80
2022-11-17T06:55:38.658Z,21.80
2022-11-17T06:58:07.750Z,21.90
2022-11-17T07:00:36.199Z,21.90
2022-11-17T07:03:09.089Z,22.00
2022-11-17T07:05:39.900Z,22.00
2022-11-17T07:08:08.471Z,21.90
2022-11-17T07:10:36.030Z,22.00
2022-11-17T07:13:03.374Z,22.00
2022-11-17T07:15:30.582Z,22.10
2022-11-17T07:17:58.149Z,22.10
2022-11-17T07:20:24.953Z,22.10
2022-11-17T07:22:52.027Z,22.10
2022-11-17T07:25:22.392Z,22.10
2022-11-17T07:27:56.804Z,22.20
2022-11-17T07:30:23.528Z,22.20
2022-11-17T07:32:54.513Z,22.20
2022-11-17T07:35:21.585Z,22.20
2022-11-17T07:37:48.268Z,22.20
2022-11-17T07:40:15.986Z,22.20
2022-11-17T07:42:47.649Z,22.20
2022-11-17T07:45:14.401Z,22.20
2022-11-17T07:47:41.118Z,22.20
2022-11-17T07:50:08.196Z,22.20
2022-11-17T07:52:40.157Z,22.20
2022-11-17T07:55:08.356Z,22.20
2022-11-17T07:57:35.681Z,22.20
2022-11-17T08:00:02.609Z,22.30
2022-11-17T08:02:29.286Z,22.30
2022-11-17T08:04:56.074Z,22.30
2022-11-17T08:07:22.828Z,22.30
2022-11-17T08:09:49.606Z,22.30
2022-11-17T08:12:16.313Z,22.30
2022-11-17T08:14:43.019Z,22.30
2022-11-17T08:17:09.894Z,22.30
2022-11-17T08:19:36.636Z,22.30
2022-11-17T08:22:03.402Z,22.30
2022-11-17T08:24:30.150Z,22.30
2022-11-17T08:26:56.880Z,22.30
2022-11-17T08:29:24.667Z,22.30
2022-11-17T08:31:51.686Z,22.40
2022-11-17T08:34:18.391Z,22.40
2022-11-17T08:36:45.121Z,22.40
2022-11-17T08:39:11.873Z,22.40
2022-11-17T08:41:38.658Z,22.40
2022-11-17T08:44:05.611Z,22.40
2022-11-17T08:46:32.415Z,22.40
2022-11-17T08:49:01.131Z,22.40
2022-11-17T08:51:29.300Z,22.40
2022-11-17T08:53:56.219Z,22.40
2022-11-17T08:56:23.209Z,22.50
2022-11-17T08:58:49.935Z,22.50
2022-11-17T09:01:16.988Z,22.50
2022-11-17T09:03:45.799Z,22.50
2022-11-17T09:06:13.628Z,22.60
2022-11-17T09:08:48.115Z,22.60
2022-11-17T09:11:16.535Z,22.70
2022-11-17T09:13:45.585Z,22.70
2022-11-17T09:16:12.829Z,22.70
2022-11-17T09:18:40.833Z,22.70
2022-11-17T09:21:10.427Z,22.70
2022-11-17T09:23:37.602Z,22.70
2022-11-17T09:26:15.307Z,22.70
2022-11-17T09:28:43.996Z,22.70
2022-11-17T09:31:17.411Z,22.70
2022-11-17T09:33:44.621Z,22.70
2022-11-17T09:36:12.909Z,22.70
2022-11-17T09:38:40.387Z,22.70
2022-11-17T09:41:15.761Z,22.70
2022-11-17T09:44:07.347Z,22.70
2022-11-17T09:46:45.123Z,22.70
2022-11-17T09:49:34.946Z,22.70
2022-11-17T09:52:10.606Z,22.70
2022-11-17T09:54:50.596Z,22.60
2022-11-17T09:57:43.473Z,22.70
2022-11-17T10:00:14.091Z,22.70
2022-11-17T10:02:45.098Z,22.70
2022-11-17T10:05:30.273Z,22.70
2022-11-17T10:08:11.981Z,22.70
2022-11-17T10:10:53.069Z,22.70
2022-11-17T10:13:27.911Z,22.70
2022-11-17T10:15:59.007Z,22.70
2022-11-17T10:18:38.354Z,22.70
2022-11-17T10:21:06.959Z,22.70
2022-11-17T10:23:46.055Z,22.80
2022-11-17T10:26:15.522Z,22.80
2022-11-17T10:28:42.787Z,22.80
2022-11-17T10:31:19.436Z,22.80
2022-11-17T10:33:48.657Z,22.80
2022-11-17T10:36:29.147Z,22.80
2022-11-17T10:38:58.596Z,22.80
2022-11-17T10:41:42.095Z,22.80
2022-11-17T10:44:25.540Z,22.70
2022-11-17T10:47:02.907Z,22.70
2022-11-17T10:49:40.771Z,22.60
2022-11-17T10:52:16.318Z,22.60
2022-11-17T10:54:43.748Z,22.60
2022-11-17T10:57:17.649Z,22.60
2022-11-17T10:59:56.822Z,22.50
2022-11-17T11:02:35.734Z,22.50
2022-11-17T11:05:10.353Z,22.50
2022-11-17T11:07:38.043Z,22.50
2022-11-17T11:10:14.431Z,22.50
2022-11-17T11:12:59.885Z,22.50
2022-11-17T11:15:32.716Z,22.50
2022-11-17T11:17:59.408Z,22.60
2022-11-17T11:20:47.616Z,22.50
2022-11-17T11:23:39.538Z,22.60
2022-11-17T11:26:23.627Z,22.50
2022-11-17T11:29:10.535Z,22.50
2022-11-17T11:35:50.636Z,21.90
2022-11-17T11:38:30.073Z,21.00
2022-11-17T11:41:09.115Z,20.60
2022-11-17T11:43:45.574Z,20.20
2022-11-17T11:46:43.373Z,20.00
2022-11-17T11:49:21.505Z,20.00
2022-11-17T11:51:51.375Z,20.20
2022-11-17T11:54:40.424Z,20.40
2022-11-17T11:57:13.813Z,20.60
2022-11-17T11:59:50.836Z,20.80
2022-11-17T12:02:43.121Z,21.00
2022-11-17T12:05:25.639Z,21.10
2022-11-17T12:08:25.711Z,21.30
2022-11-17T12:11:46.103Z,21.40
2022-11-17T12:14:18.713Z,21.50
2022-11-17T12:16:47.902Z,21.60
2022-11-17T12:19:42.450Z,21.70
2022-11-17T12:22:09.710Z,21.80
2022-11-17T12:24:41.686Z,21.90
2022-11-17T12:27:47.447Z,21.90
2022-11-17T12:30:32.980Z,22.00
2022-11-17T12:33:01.358Z,22.10
2022-11-17T12:35:32.823Z,22.00
2022-11-17T12:38:17.343Z,22.10
2022-11-17T12:40:54.076Z,22.20
2022-11-17T12:43:30.654Z,22.20
2022-11-17T12:46:03.518Z,22.20
2022-11-17T12:48:35.125Z,22.20
2022-11-17T12:51:15.254Z,22.20
2022-11-17T12:54:05.680Z,22.20
2022-11-17T12:56:50.881Z,22.30
2022-11-17T12:59:51.869Z,22.30
2022-11-17T13:02:21.505Z,22.30
2022-11-17T13:04:54.718Z,22.30
2022-11-17T13:07:23.883Z,22.30
2022-11-17T13:09:57.206Z,22.30
2022-11-17T13:12:29.475Z,22.40
2022-11-17T13:15:02.577Z,22.30
2022-11-17T13:17:43.036Z,22.30
2022-11-17T13:20:30.061Z,22.40
2022-11-17T13:23:00.907Z,22.40
2022-11-17T13:25:27.736Z,22.40
2022-11-17T13:27:59.803Z,22.40
2022-11-17T13:30:31.354Z,22.40
2022-11-17T13:33:01.726Z,22.40
2022-11-17T13:35:36.183Z,22.40
2022-11-17T13:38:12.295Z,22.40
2022-11-17T13:40:41.577Z,22.40
2022-11-17T13:43:13.417Z,22.40
2022-11-17T13:45:40.653Z,22.40
2022-11-17T13:48:27.307Z,22.50
2022-11-17T13:50:54.006Z,22.40
2022-11-17T13:53:26.375Z,22.40
2022-11-17T13:55:53.483Z,22.50
2022-11-17T13:58:26.963Z,22.50
2022-11-17T14:00:57.596Z,22.40
2022-11-17T14:03:36.226Z,22.50
2022-11-17T14:06:11.438Z,22.50
2022-11-17T14:08:40.031Z,22.50
2022-11-17T14:11:12.863Z,22.50
2022-11-17T14:13:44.826Z,22.50
2022-11-17T14:16:24.968Z,22.50
2022-11-17T14:19:22.358Z,22.50
2022-11-17T14:22:01.511Z,22.50
2022-11-17T14:24:28.810Z,22.50
2022-11-17T14:26:56.227Z,22.40
2022-11-17T14:29:23.016Z,22.50
2022-11-17T14:31:49.756Z,22.50
2022-11-17T14:34:17.369Z,22.50
2022-11-17T14:36:44.424Z,22.50
2022-11-17T14:39:16.656Z,22.50
2022-11-17T14:41:45.537Z,22.50
2022-11-17T14:44:12.371Z,22.50
2022-11-17T14:46:39.165Z,22.50
2022-11-17T14:49:05.975Z,22.50
2022-11-17T14:51:33.272Z,22.50
2022-11-17T14:54:00.265Z,22.50
2022-11-17T14:56:27.039Z,22.50
2022-11-17T14:58:59.148Z,22.50
2022-11-17T15:01:31.697Z,22.50
2022-11-17T15:04:04.170Z,22.50
2022-11-17T15:06:42.361Z,22.50
2022-11-17T15:09:13.820Z,22.50
2022-11-17T15:11:40.535Z,22.50
2022-11-17T15:14:07.555Z,22.50
2022-11-17T15:16:34.632Z,22.50
2022-11-17T15:19:02.664Z,22.50
2022-11-17T15:21:29.386Z,22.50
2022-11-17T15:23:56.097Z,22.50
2022-11-17T15:26:23.740Z,22.50
2022-11-17T15:28:50.670Z,22.50
2022-11-17T15:31:19.901Z,22.50
2022-11-17T15:33:48.020Z,22.50
2022-11-17T15:36:17.366Z,22.50
2022-11-17T15:38:45.052Z,22.50
2022-11-17T15:41:13.352Z,22.60
2022-11-17T15:43:41.920Z,22.50
2022-11-17T15:46:17.274Z,22.50
2022-11-17T15:48:46.467Z,22.50
2022-11-17T15:51:15.955Z,22.50
2022-11-17T15:53:44.282Z,22.50
2022-11-17T15:56:17.031Z,22.50
2022-11-17T15:58:44.534Z,22.60
2022-11-17T16:01:16.789Z,22.50
2022-11-17T16:03:45.272Z,22.50
2022-11-17T16:06:12.911Z,22.60
2022-11-17T16:08:40.028Z,22.50
2022-11-17T16:11:07.551Z,22.50
2022-11-17T16:13:34.346Z,22.50
2022-11-17T16:16:01.092Z,22.50
2022-11-17T16:18:27.954Z,22.50
2022-11-17T16:20:55.546Z,22.50
2022-11-17T16:23:23.755Z,22.60
2022-11-17T16:25:50.661Z,22.50
2022-11-17T16:28:17.729Z,22.50
2022-11-17T16:30:44.681Z,22.50
2022-11-17T16:33:13.303Z,22.50
2022-11-17T16:35:41.471Z,22.50
2022-11-17T16:38:13.871Z,22.50
2022-11-17T16:40:41.227Z,22.50
2022-11-17T16:43:12.046Z,22.50
2022-11-17T16:45:45.980Z,22.50
2022-11-17T16:48:12.881Z,22.50
2022-11-17T16:50:40.883Z,22.50
2022-11-17T16:53:07.786Z,22.60
2022-11-17T16:55:35.724Z,22.50
2022-11-17T16:58:03.631Z,22.60
2022-11-17T17:00:30.803Z,22.50
2022-11-17T17:02:57.694Z,22.60
2022-11-17T17:05:25.585Z,22.50
2022-11-17T17:07:52.281Z,22.50
2022-11-17T17:10:18.999Z,22.50
2022-11-17T17:12:45.737Z,22.50
2022-11-17T17:15:12.559Z,22.50
2022-11-17T17:17:39.259Z,22.50
2022-11-17T17:20:06.663Z,22.60
2022-11-17T17:22:33.394Z,22.50
2022-11-17T17:25:00.113Z,22.60
2022-11-17T17:27:31.218Z,22.60
2022-11-17T17:29:58.052Z,22.50
2022-11-17T17:32:24.839Z,22.50
2022-11-17T17:34:51.785Z,22.50
2022-11-17T17:37:18.498Z,22.50
2022-11-17T17:39:45.210Z,22.50
2022-11-17T17:42:12.742Z,22.60
2022-11-17T17:44:49.115Z,22.50
2022-11-17T17:47:15.831Z,22.50
2022-11-17T17:49:42.535Z,22.50
2022-11-17T17:52:13.653Z,22.60
2022-11-17T17:54:40.838Z,22.50
2022-11-17T17:57:07.854Z,22.50
2022-11-17T17:59:34.547Z,22.50
2022-11-17T18:02:01.283Z,22.50
2022-11-17T18:04:28.871Z,22.60
2022-11-17T18:06:56.657Z,22.50
2022-11-17T18:09:23.482Z,22.50
2022-11-17T18:11:51.207Z,22.50
2022-11-17T18:14:23.782Z,22.50
2022-11-17T18:16:51.627Z,22.50
2022-11-17T18:19:19.341Z,22.50
2022-11-17T18:21:46.320Z,22.50
2022-11-17T18:24:13.160Z,22.50
2022-11-17T18:26:41.182Z,22.50
2022-11-17T18:29:13.573Z,22.50
2022-11-17T18:31:40.749Z,22.50
2022-11-17T18:34:14.265Z,22.50
2022-11-17T18:36:41.053Z,22.50
2022-11-17T18:39:08.029Z,22.50
2022-11-17T18:41:36.220Z,22.50
2022-11-17T18:44:03.245Z,22.50
2022-11-17T18:46:31.988Z,22.50
2022-11-17T18:48:59.498Z,22.50
2022-11-17T18:51:28.998Z,22.60
2022-11-17T18:53:57.930Z,22.50
2022-11-17T18:56:27.494Z,22.50
2022-11-17T19:02:35.367Z,22.50
2022-11-17T19:05:02.039Z,22.50
2022-11-17T19:07:28.753Z,22.50
2022-11-17T19:09:55.521Z,22.50
2022-11-17T19:12:22.191Z,22.60
2022-11-17T19:14:48.879Z,22.60
2022-11-17T19:17:15.563Z,22.50
2022-11-17T19:19:42.234Z,22.50
2022-11-17T19:22:08.904Z,22.60
2022-11-17T19:24:35.593Z,22.50
2022-11-17T19:27:02.389Z,22.60
2022-11-17T19:29:29.046Z,22.60
2022-11-17T19:31:55.802Z,22.50
2022-11-17T19:34:22.576Z,22.50
2022-11-17T19:36:49.287Z,22.50
2022-11-17T19:39:16.978Z,22.60
2022-11-17T19:41:45.108Z,22.50
2022-11-17T19:44:12.303Z,22.50
2022-11-17T19:46:39.204Z,22.50
2022-11-17T19:49:07.557Z,22.60
2022-11-17T19:51:36.893Z,22.50
2022-11-17T19:54:08.815Z,22.50
2022-11-17T19:56:35.960Z,22.50
2022-11-17T19:59:03.392Z,22.50
2022-11-17T20:01:31.129Z,22.60
2022-11-17T20:04:03.054Z,22.50
2022-11-17T20:06:35.368Z,22.60
2022-11-17T20:09:10.663Z,22.60
2022-11-17T20:11:37.980Z,22.60
2022-11-17T20:14:04.806Z,22.60
2022-11-17T20:16:32.027Z,22.50
2022-11-17T20:19:02.509Z,22.60
2022-11-17T20:21:30.858Z,22.50
2022-11-17T20:23:59.071Z,22.60
2022-11-17T20:26:28.655Z,22.50
2022-11-17T20:28:56.553Z,22.60
2022-11-17T20:31:25.154Z,22.50
2022-11-17T20:33:56.288Z,22.50
2022-11-17T20:36:25.941Z,22.50
2022-11-17T20:38:54.229Z,22.50
2022-11-17T20:41:23.313Z,22.50
2022-11-17T20:43:51.810Z,22.50
2022-11-17T20:46:19.185Z,22.60
2022-11-17T20:48:46.066Z,22.50
2022-11-17T20:51:15.059Z,22.50
2022-11-17T20:53:42.053Z,22.50
2022-11-17T20:56:11.374Z,22.50
2022-11-17T20:58:38.362Z,22.50
2022-11-17T21:01:14.561Z,22.50
2022-11-17T21:03:41.621Z,22.50
2022-11-17T21:06:09.064Z,22.50
2022-11-17T21:08:38.708Z,22.50
2022-11-17T21:11:08.172Z,22.50
2022-11-17T21:13:36.194Z,22.50
2022-11-17T21:16:03.902Z,22.50
2022-11-17T21:18:30.704Z,22.50
2022-11-17T21:20:59.439Z,22.50
2022-11-17T21:23:27.443Z,22.50
2022-11-17T21:25:54.161Z,22.50
2022-11-17T21:28:20.870Z,22.50
2022-11-17T21:30:47.582Z,22.50
2022-11-17T21:33:14.346Z,22.50
2022-11-17T21:35:41.094Z,22.50
2022-11-17T21:38:08.888Z,22.50
2022-11-17T21:40:35.561Z,22.50
2022-11-17T21:43:02.312Z,22.50
2022-11-17T21:45:29.063Z,22.50
2022-11-17T21:47:59.445Z,22.50
2022-11-17T21:50:26.394Z,22.50
2022-11-17T21:52:53.080Z,22.50
2022-11-17T21:55:19.737Z,22.50
2022-11-17T21:57:50.539Z,22.50
2022-11-17T22:00:17.915Z,22.50
2022-11-17T22:02:44.654Z,22.50
2022-11-17T22:05:11.522Z,22.50
2022-11-17T22:07:38.440Z,22.50
2022-11-17T22:10:05.753Z,22.50
2022-11-17T22:12:32.422Z,22.50
2022-11-17T22:14:59.144Z,22.50
2022-11-17T22:17:25.815Z,22.50
2022-11-17T22:19:52.481Z,22.50
2022-11-17T22:22:19.189Z,22.40
2022-11-17T22:24:49.825Z,22.40
2022-11-17T22:27:17.085Z,22.50
2022-11-17T22:29:43.899Z,22.50
2022-11-17T22:32:10.571Z,22.50
2022-11-17T22:34:37.254Z,22.40
2022-11-17T22:37:04.202Z,22.50
2022-11-17T22:39:30.908Z,22.50
2022-11-17T22:41:57.595Z,22.40
2022-11-17T22:44:24.953Z,22.40
2022-11-17T22:46:51.659Z,22.40
2022-11-17T22:49:18.578Z,22.40
2022-11-17T22:52:03.980Z,22.40
2022-11-17T22:54:31.348Z,22.40
2022-11-17T22:56:58.847Z,22.40
2022-11-17T22:59:27.191Z,22.40
2022-11-17T23:01:54.567Z,22.40
2022-11-17T23:04:22.989Z,22.40
2022-11-17T23:06:49.903Z,22.40
2022-11-17T23:09:17.215Z,22.40
2022-11-17T23:11:44.129Z,22.40
2022-11-17T23:14:13.451Z,22.40
2022-11-17T23:16:41.074Z,22.40
2022-11-17T23:19:11.096Z,22.40
2022-11-17T23:21:37.824Z,22.40
2022-11-17T23:24:04.899Z,22.40
2022-11-17T23:26:31.588Z,22.40
2022-11-17T23:28:58.318Z,22.40
2022-11-17T23:31:27.754Z,22.40
2022-11-17T23:33:54.537Z,22.40
2022-11-17T23:36:22.274Z,22.40
2022-11-17T23:38:50.294Z,22.40
2022-11-17T23:41:19.426Z,22.40
2022-11-17T23:43:46.567Z,22.40
2022-11-17T23:46:16.043Z,22.40
2022-11-17T23:48:43.532Z,22.40
2022-11-17T23:51:13.602Z,22.40
2022-11-17T23:53:40.695Z,22.40
2022-11-17T23:56:08.671Z,22.40
2022-11-17T23:58:35.658Z,22.40
